• Join FlightAware (Why Join?)
  • Login
  • US Flag GB Flag 
12:06 EST


 

Airport Tracker/Info


-or-


 

Live Flight TrackerFlight Track Log ✈ UAL4236 ✈ 19-Apr-2013 ✈ KELP - KIAH

Flight Track Log - Related Links

Times and Time Zones

All times are in EDT time to prevent confusion due to time zone crossing. See the UAL4236 flight status page for this flight to view local times or setup timezone preferences in your user account.

Time Position Orientation Groundspeed Altitude Reporting Facility
EDT Latitude Longitude Course Direction KTS MPH feet Rate Location/Type
12:21 31.7594 -106.4050 188° South 207 238 6,100  Level Albuquerque Center
12:22 31.7292 -106.3219 113° Southeast 252 290 8,200 1,860 Climbing Albuquerque Center
12:23 31.7345 -105.8138 96° East  Level FlightAware Approximate
12:23 31.7236 -106.2525 95° East 297 342 9,500  Level Albuquerque Center
12:23 31.7217 -106.2303 96° East 283 326 9,900 900 Climbing Albuquerque Center
12:24 31.7160 -105.6755 96° East  Level FlightAware Approximate
12:24 31.7122 -106.1269 96° East 320 368 10,700  Level Albuquerque Center
12:25 31.7033 -105.5362 96° East  Level FlightAware Approximate
12:25 31.7019 -106.0097 96° East 358 412 12,100  Level Albuquerque Center
12:26 31.6914 -105.8897 96° East 368 423 13,500 1,320 Climbing Albuquerque Center
12:27 31.6811 -105.7661 96° East 379 436 14,900 1,440 Climbing Albuquerque Center
12:28 31.6675 -105.6175 96° East 382 440 16,500 1,380 Climbing Albuquerque Center
12:29 31.6553 -105.4928 97° East 384 442 17,800 960 Climbing Albuquerque Center
12:30 31.6444 -105.3647 96° East 392 451 18,600 960 Climbing Albuquerque Center
12:31 31.6331 -105.2336 96° East 401 461 19,800 1,080 Climbing Albuquerque Center
12:32 31.6206 -105.1014 96° East 405 466 20,900 1,140 Climbing Albuquerque Center
12:33 31.6086 -104.9661 96° East 412 474 22,200 1,140 Climbing Albuquerque Center
12:34 31.5958 -104.8311 96° East 415 478 23,300 1,200 Climbing Albuquerque Center
12:35 31.5803 -104.6678 96° East 417 480 24,800 1,260 Climbing Albuquerque Center
12:36 31.5667 -104.5311 97° East 420 483 26,000 1,080 Climbing Albuquerque Center
12:37 31.5539 -104.3950 96° East 419 482 27,100 1,020 Climbing Albuquerque Center
12:38 31.5629 -104.3579 96° East  Level FlightAware Approximate
12:38 31.5392 -104.2575 97° East 422 486 28,200  Level Albuquerque Center
12:39 31.5250 -104.1189 97° East 426 490 29,200 960 Climbing Albuquerque Center
12:40 31.5119 -103.9792 96° East 430 495 30,200 960 Climbing Albuquerque Center
12:41 31.4972 -103.8369 97° East 436 502 31,200 1,020 Climbing Albuquerque Center
12:42 31.4789 -103.6600 97° East 449 517 32,400 1,020 Climbing Albuquerque Center
12:44 31.4619 -103.5097 97° East 461 531 33,400 900 Climbing Albuquerque Center
12:45 31.4436 -103.3736 99° East 467 537 34,300 720 Climbing Albuquerque Center
12:46 31.4233 -103.1919 97° East 471 542 35,000 300 Climbing Albuquerque Center
12:47 31.4025 -103.0308 99° East 490 564 35,000  Level Albuquerque Center
12:48 31.3800 -102.8633 99° East 513 590 35,000  Level Albuquerque Center
12:49 31.3572 -102.6736 98° East 525 604 35,000  Level Albuquerque Center
12:50 31.3375 -102.5244 99° East 529 609 35,000  Level Albuquerque Center
12:51 31.3108 -102.3219 99° East 529 609 35,000  Level Albuquerque Center
12:52 31.2878 -102.1542 99° East 527 606 35,000  Level Albuquerque Center
12:53 31.2658 -101.9850 99° East 528 608 35,000  Level Albuquerque Center
12:54 31.2425 -101.8161 99° East 529 609 35,000  Level Albuquerque Center
12:55 31.2203 -101.6467 99° East 530 610 35,000  Level Albuquerque Center
12:55 31.2103 -101.5822 100° East 530 610 35,000  Level Houston Center
12:56 31.1875 -101.4114 99° East 531 611 35,000  Level Houston Center
12:57 31.1636 -101.2392 99° East 532 612 35,000  Level Houston Center
12:58 31.1408 -101.0664 99° East 536 617 35,000  Level Houston Center
12:59 31.1169 -100.8978 99° East 529 609 35,000 -60 Level Houston Center
13:00 31.0872 -100.6936 100° East 530 610 34,900  Descending Houston Center
13:01 31.0628 -100.5228 99° East 533 613 35,000  Climbing Houston Center
13:02 31.0378 -100.3508 100° East 535 616 35,000  Level Houston Center
13:03 31.0114 -100.1781 100° East 540 621 35,000  Level Houston Center
13:04 30.9850 -100.0022 100° East 547 629 35,000  Level Houston Center
13:06 30.9594 -99.8283 100° East 544 626 35,000  Level Houston Center
13:07 30.9267 -99.6197 100° East 544 626 35,000  Level Houston Center
13:08 30.9006 -99.4456 100° East 546 628 35,000  Level Houston Center
13:09 30.8725 -99.2708 101° East 547 629 35,000  Level Houston Center
13:10 30.8458 -99.1006 100° East 549 632 35,000  Level Houston Center
13:11 30.8175 -98.9247 101° East 549 632 35,000  Level Houston Center
13:12 30.7953 -98.7178 97° East 551 634 35,000  Level Houston Center
13:13 30.8014 -98.5358 88° East 556 640 35,000  Level Houston Center
13:14 30.8039 -98.3544 89° East 556 640 35,000  Level Houston Center
13:15 30.8078 -98.1747 89° East 555 639 35,000  Level Houston Center
13:16 30.8108 -97.9936 89° East 556 640 35,000  Level Houston Center
13:17 30.8142 -97.8108 89° East 559 643 35,000  Level Houston Center
13:18 30.8156 -97.6006 90° East 557 641 35,000  Level Houston Center
13:19 30.8175 -97.4183 89° East 562 647 35,000 -120 Level Houston Center
13:20 30.8192 -97.2386 89° East 565 650 34,800 -1,140 Descending Houston Center
13:21 30.7939 -97.0636 100° East 557 641 32,700 -2,520 Descending Houston Center
13:22 30.7486 -96.9053 108° East 517 595 29,600 -3,120 Descending Houston Center
13:23 30.6989 -96.7281 108° East 489 563 26,300 -2,880 Descending Houston Center
13:24 30.6564 -96.5789 108° East 484 557 23,600 -2,580 Descending Houston Center
13:25 30.6194 -96.4375 107° East 454 522 21,000 -2,280 Descending Houston Center
13:26 30.5831 -96.3144 109° East 408 470 19,000 -2,100 Descending Houston Center
13:27 30.5639 -96.2478 108° East 391 450 17,900 -1,800 Descending Houston Center
13:27 30.5483 -96.1950 109° East 391 450 17,200 -2,160 Descending Houston Center
13:28 30.5281 -96.1233 108° East 389 448 15,500 -2,340 Descending Houston Center
13:28 30.5150 -96.0750 107° East 388 447 14,800 -1,980 Descending Houston Center
13:29 30.4922 -95.9989 109° East 373 429 13,500 -1,980 Descending Houston Center
13:29 30.4794 -95.9581 110° East 371 427 12,800 -1,380 Descending Houston Center
13:30 30.4572 -95.8867 110° East 365 420 12,100 -780 Descending Houston Center
13:30 30.4428 -95.8486 114° Southeast 366 421 12,000 -300 Descending Houston Center
13:31 30.3814 -95.7867 139° Southeast 381 438 11,800 -720 Descending Houston Center
13:31 30.3639 -95.7683 138° Southeast 375 432 11,300 -1,500 Descending Houston Center
13:32 30.3214 -95.7258 139° Southeast 349 402 10,600 -1,560 Descending Houston Center
13:32 30.2794 -95.6822 138° Southeast 343 395 9,700 -1,740 Descending Houston Center
13:33 30.2475 -95.6475 137° Southeast 314 361 8,700 -1,980 Descending Houston Center
13:33 30.2164 -95.6153 138° Southeast 315 362 7,700 -1,920 Descending Houston Center
13:34 30.1825 -95.5803 138° Southeast 311 358 6,800 -1,500 Descending Houston Center
13:35 30.1514 -95.5472 137° Southeast 312 359 6,200 -780 Descending Houston Center
13:35 30.1175 -95.5083 135° Southeast 301 346 6,000 -240 Descending Houston Center
13:36 30.1069 -95.4694 107° East 297 342 6,000  Level Houston Center
13:36 30.1050 -95.4181 92° East 278 320 6,000  Level Houston Center
13:37 30.1061 -95.3781 88° East 285 328 6,000  Level Houston Center
13:37 30.1050 -95.3261 91° East 282 325 6,000  Level Houston Center
13:38 30.1058 -95.2875 89° East 283 326 6,000 -540 Level Houston Center
13:38 30.1058 -95.2439 90° East 226 260 5,500 -1,920 Descending Houston Center
13:39 30.0956 -95.1992 105° East 244 281 4,000 -2,340 Descending Houston Center
13:39 30.0669 -95.1861 158° South 261 300 3,100 -1,560 Descending Houston Center
13:40 30.0347 -95.2042 206° Southwest 248 285 2,400 -1,020 Descending Houston Center
13:40 30.0136 -95.2214 215° Southwest 207 238 2,100 -840 Descending Houston Center